sensor_id;sensor_type;location;lat;lon;timestamp;temperature;humidity
12370;DHT22;6249;52.128;9.986;2023-06-10T00:01:41;18.80;99.60
12370;DHT22;6249;52.128;9.986;2023-06-10T00:11:42;18.60;99.60
12370;DHT22;6249;52.128;9.986;2023-06-10T00:21:43;18.30;99.90
12370;DHT22;6249;52.128;9.986;2023-06-10T00:31:45;18.10;99.90
12370;DHT22;6249;52.128;9.986;2023-06-10T00:41:46;17.80;99.90
12370;DHT22;6249;52.128;9.986;2023-06-10T00:51:49;17.60;99.90
12370;DHT22;6249;52.128;9.986;2023-06-10T01:01:52;17.70;99.90
12370;DHT22;6249;52.128;9.986;2023-06-10T01:12:00;17.40;99.90
12370;DHT22;6249;52.128;9.986;2023-06-10T01:22:08;17.20;99.90
12370;DHT22;6249;52.128;9.986;2023-06-10T01:32:29;17.00;99.90
12370;DHT22;6249;52.128;9.986;2023-06-10T01:42:33;16.70;99.90
12370;DHT22;6249;52.128;9.986;2023-06-10T01:52:36;16.20;99.90
12370;DHT22;6249;52.128;9.986;2023-06-10T02:02:37;16.20;99.90
12370;DHT22;6249;52.128;9.986;2023-06-10T02:12:38;16.00;99.90
12370;DHT22;6249;52.128;9.986;2023-06-10T02:22:38;15.90;99.90
12370;DHT22;6249;52.128;9.986;2023-06-10T02:32:42;15.50;99.90
12370;DHT22;6249;52.128;9.986;2023-06-10T02:42:45;15.30;99.90
12370;DHT22;6249;52.128;9.986;2023-06-10T02:52:45;15.10;99.90
12370;DHT22;6249;52.128;9.986;2023-06-10T03:02:48;15.00;99.90
12370;DHT22;6249;52.128;9.986;2023-06-10T03:12:51;14.90;99.90
12370;DHT22;6249;52.128;9.986;2023-06-10T03:22:54;14.70;99.90
12370;DHT22;6249;52.128;9.986;2023-06-10T03:32:57;14.70;99.90
12370;DHT22;6249;52.128;9.986;2023-06-10T03:42:58;14.60;99.90
12370;DHT22;6249;52.128;9.986;2023-06-10T03:53:01;14.50;99.90
12370;DHT22;6249;52.128;9.986;2023-06-10T04:03:01;14.40;99.90
12370;DHT22;6249;52.128;9.986;2023-06-10T04:13:02;14.40;99.90
12370;DHT22;6249;52.128;9.986;2023-06-10T04:23:03;14.50;99.90
12370;DHT22;6249;52.128;9.986;2023-06-10T04:33:04;14.70;99.90
12370;DHT22;6249;52.128;9.986;2023-06-10T04:43:06;14.70;99.90
12370;DHT22;6249;52.128;9.986;2023-06-10T04:53:10;14.80;99.90
12370;DHT22;6249;52.128;9.986;2023-06-10T05:03:10;14.80;99.90
12370;DHT22;6249;52.128;9.986;2023-06-10T05:13:11;14.80;99.90
12370;DHT22;6249;52.128;9.986;2023-06-10T05:23:11;15.10;99.90
12370;DHT22;6249;52.128;9.986;2023-06-10T05:33:12;15.30;99.90
12370;DHT22;6249;52.128;9.986;2023-06-10T05:43:15;15.60;99.90
12370;DHT22;6249;52.128;9.986;2023-06-10T05:53:18;15.90;99.90
12370;DHT22;6249;52.128;9.986;2023-06-10T06:03:19;15.90;99.90
12370;DHT22;6249;52.128;9.986;2023-06-10T06:13:22;16.30;99.90
12370;DHT22;6249;52.128;9.986;2023-06-10T06:23:22;16.40;99.90
12370;DHT22;6249;52.128;9.986;2023-06-10T06:33:25;16.80;99.90
12370;DHT22;6249;52.128;9.986;2023-06-10T06:43:29;17.10;99.90
12370;DHT22;6249;52.128;9.986;2023-06-10T06:53:30;17.20;99.90
12370;DHT22;6249;52.128;9.986;2023-06-10T07:03:31;17.30;99.90
12370;DHT22;6249;52.128;9.986;2023-06-10T07:13:32;17.40;99.90
12370;DHT22;6249;52.128;9.986;2023-06-10T07:23:35;17.60;99.90
12370;DHT22;6249;52.128;9.986;2023-06-10T07:33:35;17.80;99.90
12370;DHT22;6249;52.128;9.986;2023-06-10T07:43:37;18.10;99.90
12370;DHT22;6249;52.128;9.986;2023-06-10T07:53:38;18.50;99.90
12370;DHT22;6249;52.128;9.986;2023-06-10T08:03:39;18.90;99.90
12370;DHT22;6249;52.128;9.986;2023-06-10T08:13:39;19.30;99.90
12370;DHT22;6249;52.128;9.986;2023-06-10T08:23:40;19.70;99.90
12370;DHT22;6249;52.128;9.986;2023-06-10T08:33:42;20.30;99.90
12370;DHT22;6249;52.128;9.986;2023-06-10T08:43:57;20.80;99.90
12370;DHT22;6249;52.128;9.986;2023-06-10T08:54:09;21.30;99.90
12370;DHT22;6249;52.128;9.986;2023-06-10T09:04:14;21.90;99.90
12370;DHT22;6249;52.128;9.986;2023-06-10T09:14:16;22.40;99.90
12370;DHT22;6249;52.128;9.986;2023-06-10T09:24:19;23.30;99.90
12370;DHT22;6249;52.128;9.986;2023-06-10T09:34:25;23.80;99.90
12370;DHT22;6249;52.128;9.986;2023-06-10T09:44:28;24.90;99.90
12370;DHT22;6249;52.128;9.986;2023-06-10T09:54:34;25.50;99.90
12370;DHT22;6249;52.128;9.986;2023-06-10T10:04:36;26.30;99.90
12370;DHT22;6249;52.128;9.986;2023-06-10T10:14:37;27.30;99.90
12370;DHT22;6249;52.128;9.986;2023-06-10T10:24:50;27.80;99.90
12370;DHT22;6249;52.128;9.986;2023-06-10T10:35:08;28.90;98.70
12370;DHT22;6249;52.128;9.986;2023-06-10T10:45:09;29.90;96.40
12370;DHT22;6249;52.128;9.986;2023-06-10T10:55:15;30.60;95.00
12370;DHT22;6249;52.128;9.986;2023-06-10T11:05:18;31.50;93.30
12370;DHT22;6249;52.128;9.986;2023-06-10T11:15:31;32.60;92.10
12370;DHT22;6249;52.128;9.986;2023-06-10T11:25:39;34.10;88.10
12370;DHT22;6249;52.128;9.986;2023-06-10T11:35:40;34.30;85.10
12370;DHT22;6249;52.128;9.986;2023-06-10T11:45:46;35.10;81.00
12370;DHT22;6249;52.128;9.986;2023-06-10T11:55:49;36.10;76.20
12370;DHT22;6249;52.128;9.986;2023-06-10T12:05:57;36.40;76.70
12370;DHT22;6249;52.128;9.986;2023-06-10T12:16:09;37.40;69.90
12370;DHT22;6249;52.128;9.986;2023-06-10T12:26:10;38.00;67.20
12370;DHT22;6249;52.128;9.986;2023-06-10T12:36:16;38.40;60.80
12370;DHT22;6249;52.128;9.986;2023-06-10T12:46:17;38.30;60.40
12370;DHT22;6249;52.128;9.986;2023-06-10T12:56:19;39.40;58.60
12370;DHT22;6249;52.128;9.986;2023-06-10T13:06:25;39.40;54.50
12370;DHT22;6249;52.128;9.986;2023-06-10T13:16:26;40.10;52.50
12370;DHT22;6249;52.128;9.986;2023-06-10T13:26:29;40.50;52.30
12370;DHT22;6249;52.128;9.986;2023-06-10T13:36:29;40.80;50.40
12370;DHT22;6249;52.128;9.986;2023-06-10T13:46:30;40.80;49.70
12370;DHT22;6249;52.128;9.986;2023-06-10T13:56:30;41.30;47.50
12370;DHT22;6249;52.128;9.986;2023-06-10T14:06:32;41.50;47.50
12370;DHT22;6249;52.128;9.986;2023-06-10T14:16:34;42.80;45.20
12370;DHT22;6249;52.128;9.986;2023-06-10T14:26:35;43.00;43.20
12370;DHT22;6249;52.128;9.986;2023-06-10T14:36:36;42.40;42.80
12370;DHT22;6249;52.128;9.986;2023-06-10T14:46:37;43.30;41.70
12370;DHT22;6249;52.128;9.986;2023-06-10T14:56:40;43.20;41.20
12370;DHT22;6249;52.128;9.986;2023-06-10T15:06:43;43.70;41.00
12370;DHT22;6249;52.128;9.986;2023-06-10T15:16:44;43.30;40.80
12370;DHT22;6249;52.128;9.986;2023-06-10T15:26:47;40.80;41.00
12370;DHT22;6249;52.128;9.986;2023-06-10T15:36:50;41.10;39.90
12370;DHT22;6249;52.128;9.986;2023-06-10T15:46:51;39.00;42.40
12370;DHT22;6249;52.128;9.986;2023-06-10T15:56:51;37.20;46.70
12370;DHT22;6249;52.128;9.986;2023-06-10T16:06:54;35.30;45.90
12370;DHT22;6249;52.128;9.986;2023-06-10T16:16:55;34.40;48.00
12370;DHT22;6249;52.128;9.986;2023-06-10T16:26:58;33.80;51.60
12370;DHT22;6249;52.128;9.986;2023-06-10T16:37:01;33.30;52.10
12370;DHT22;6249;52.128;9.986;2023-06-10T16:47:04;33.20;54.00
12370;DHT22;6249;52.128;9.986;2023-06-10T16:57:05;31.60;55.20
12370;DHT22;6249;52.128;9.986;2023-06-10T17:07:08;29.80;60.40
12370;DHT22;6249;52.128;9.986;2023-06-10T17:17:09;28.70;61.40
12370;DHT22;6249;52.128;9.986;2023-06-10T17:27:09;28.80;70.80
12370;DHT22;6249;52.128;9.986;2023-06-10T17:37:10;28.50;68.10
12370;DHT22;6249;52.128;9.986;2023-06-10T17:47:10;28.40;72.90
12370;DHT22;6249;52.128;9.986;2023-06-10T17:57:14;28.10;75.50
12370;DHT22;6249;52.128;9.986;2023-06-10T18:07:15;27.80;79.50
12370;DHT22;6249;52.128;9.986;2023-06-10T18:17:16;27.70;74.20
12370;DHT22;6249;52.128;9.986;2023-06-10T18:27:16;27.60;73.00
12370;DHT22;6249;52.128;9.986;2023-06-10T18:37:17;27.60;72.50
12370;DHT22;6249;52.128;9.986;2023-06-10T18:47:20;26.80;73.80
12370;DHT22;6249;52.128;9.986;2023-06-10T18:57:20;26.30;78.00
12370;DHT22;6249;52.128;9.986;2023-06-10T19:07:21;26.00;80.70
12370;DHT22;6249;52.128;9.986;2023-06-10T19:17:22;25.10;94.00
12370;DHT22;6249;52.128;9.986;2023-06-10T19:27:22;24.80;96.50
12370;DHT22;6249;52.128;9.986;2023-06-10T19:37:23;24.20;98.90
12370;DHT22;6249;52.128;9.986;2023-06-10T19:47:23;23.70;99.90
12370;DHT22;6249;52.128;9.986;2023-06-10T19:57:26;23.30;99.90
12370;DHT22;6249;52.128;9.986;2023-06-10T20:07:27;22.80;99.90
12370;DHT22;6249;52.128;9.986;2023-06-10T20:17:28;22.40;99.90
12370;DHT22;6249;52.128;9.986;2023-06-10T20:27:28;22.20;99.90
12370;DHT22;6249;52.128;9.986;2023-06-10T20:37:31;22.10;99.90
12370;DHT22;6249;52.128;9.986;2023-06-10T20:47:34;22.10;99.90
12370;DHT22;6249;52.128;9.986;2023-06-10T20:57:35;21.80;99.90
12370;DHT22;6249;52.128;9.986;2023-06-10T21:07:38;21.60;99.90
12370;DHT22;6249;52.128;9.986;2023-06-10T21:17:38;21.40;99.90
12370;DHT22;6249;52.128;9.986;2023-06-10T21:27:41;21.30;99.90
12370;DHT22;6249;52.128;9.986;2023-06-10T21:37:42;21.30;99.90
12370;DHT22;6249;52.128;9.986;2023-06-10T21:47:45;21.20;99.90
12370;DHT22;6249;52.128;9.986;2023-06-10T21:57:46;20.80;99.90
12370;DHT22;6249;52.128;9.986;2023-06-10T22:07:50;20.80;99.90
12370;DHT22;6249;52.128;9.986;2023-06-10T22:17:50;20.30;99.90
12370;DHT22;6249;52.128;9.986;2023-06-10T22:27:51;20.10;99.90
12370;DHT22;6249;52.128;9.986;2023-06-10T22:37:54;20.00;99.90
12370;DHT22;6249;52.128;9.986;2023-06-10T22:47:57;20.10;99.90
12370;DHT22;6249;52.128;9.986;2023-06-10T22:57:58;19.90;99.90
12370;DHT22;6249;52.128;9.986;2023-06-10T23:07:58;19.50;99.90
12370;DHT22;6249;52.128;9.986;2023-06-10T23:18:01;19.40;99.90
12370;DHT22;6249;52.128;9.986;2023-06-10T23:28:04;19.20;99.90
12370;DHT22;6249;52.128;9.986;2023-06-10T23:38:05;18.80;99.90
12370;DHT22;6249;52.128;9.986;2023-06-10T23:48:05;18.50;99.90
12370;DHT22;6249;52.128;9.986;2023-06-10T23:58:06;18.50;99.90
